MC SHIMLA BLOCK LEVEL FORECAST
DISTRICT SOLAN
Block Dharampur
Forecast Date RAIN  (mm) TEMPERATURE HUMIDITY WIND CloudCover(octa)
Max(0C) Min(0C) 0830(%) 1730(%) Speed(kmph) Direction(0)
25-11-2021 0.0 26.0 6.9 40 18 7 65 0
26-11-2021 0.0 25.9 6.9 41 17 8 65 0
27-11-2021 0.0 25.9 5.9 44 23 7 68 0
28-11-2021 0.0 24.9 5.8 48 26 7 65 0
29-11-2021 0.0 24.1 5.9 34 15 8 65 0
Block Kandaghat
Forecast Date RAIN  (mm) TEMPERATURE HUMIDITY WIND CloudCover(octa)
Max(0C) Min(0C) 0830(%) 1730(%) Speed(kmph) Direction(0)
25-11-2021 0.0 22.9 3.8 41 18 7 65 0
26-11-2021 0.0 22.8 3.8 41 17 8 65 0
27-11-2021 0.0 22.7 2.7 45 23 7 68 0
28-11-2021 0.0 21.7 2.7 49 26 7 65 0
29-11-2021 0.0 20.9 2.8 34 15 8 65 0
Block  Kunihar
Forecast Date RAIN  (mm) TEMPERATURE HUMIDITY WIND CloudCover(octa)
Max(0C) Min(0C) 0830(%) 1730(%) Speed(kmph) Direction(0)
25-11-2021 0.0 21.9 2.8 40 18 7 65 0
26-11-2021 0.0 21.8 2.8 41 17 8 65 0
27-11-2021 0.0 21.7 1.8 45 23 7 68 0
28-11-2021 0.0 20.7 1.7 48 26 7 65 0
29-11-2021 0.0 19.9 1.8 34 15 8 65 0
Block Nalagarh
Forecast Date RAIN  (mm) TEMPERATURE HUMIDITY WIND CloudCover(octa)
Max(0C) Min(0C) 0830(%) 1730(%) Speed(kmph) Direction(0)
25-11-2021 0.0 27.4 8.4 40 18 7 65 0
26-11-2021 0.0 27.4 8.4 40 17 8 65 0
27-11-2021 0.0 27.3 7.4 44 22 7 68 0
28-11-2021 0.0 26.4 7.3 47 25 7 65 0
29-11-2021 0.0 25.5 7.3 34 15 8 65 0
Block Solan
Forecast Date RAIN  (mm) TEMPERATURE HUMIDITY WIND CloudCover(octa)
Max(0C) Min(0C) 0830(%) 1730(%) Speed(kmph) Direction(0)
25-11-2021 0.0 23.9 4.8 41 18 7 65 0
26-11-2021 0.0 23.8 4.8 41 17 8 65 0
27-11-2021 0.0 23.7 3.8 45 23 7 68 0
28-11-2021 0.0 22.8 3.7 49 26 7 65 0
29-11-2021 0.0 22.0 3.9 34 15 8 65 0